sensor_id;sensor_type;location;lat;lon;timestamp;pressure;altitude;pressure_sealevel;temperature;humidity
24013;BME280;12220;50.194;18.948;2023-12-29T00:01:35;101843.71;;;8.29;71.65
24013;BME280;12220;50.194;18.948;2023-12-29T00:03:37;101839.05;;;8.31;71.53
24013;BME280;12220;50.194;18.948;2023-12-29T00:05:38;101842.48;;;8.36;71.36
24013;BME280;12220;50.194;18.948;2023-12-29T00:07:40;101839.69;;;8.38;71.26
24013;BME280;12220;50.194;18.948;2023-12-29T00:09:50;101829.65;;;8.38;71.24
24013;BME280;12220;50.194;18.948;2023-12-29T00:11:52;101825.98;;;8.40;71.03
24013;BME280;12220;50.194;18.948;2023-12-29T00:13:55;101829.52;;;8.42;70.91
24013;BME280;12220;50.194;18.948;2023-12-29T00:15:56;101833.09;;;8.44;70.80
24013;BME280;12220;50.194;18.948;2023-12-29T00:18:07;101823.84;;;8.48;70.68
24013;BME280;12220;50.194;18.948;2023-12-29T00:20:09;101816.60;;;8.47;70.73
24013;BME280;12220;50.194;18.948;2023-12-29T00:22:12;101818.24;;;8.51;70.56
24013;BME280;12220;50.194;18.948;2023-12-29T00:24:13;101809.98;;;8.52;70.48
24013;BME280;12220;50.194;18.948;2023-12-29T00:26:23;101805.34;;;8.54;70.40
24013;BME280;12220;50.194;18.948;2023-12-29T00:28:24;101809.03;;;8.53;70.44
24013;BME280;12220;50.194;18.948;2023-12-29T00:30:25;101809.84;;;8.55;70.35
24013;BME280;12220;50.194;18.948;2023-12-29T00:32:27;101811.63;;;8.57;70.35
24013;BME280;12220;50.194;18.948;2023-12-29T00:34:37;101812.36;;;8.60;70.28
24013;BME280;12220;50.194;18.948;2023-12-29T00:36:39;101811.42;;;8.61;70.20
24013;BME280;12220;50.194;18.948;2023-12-29T00:38:40;101802.28;;;8.62;70.20
24013;BME280;12220;50.194;18.948;2023-12-29T00:40:41;101804.94;;;8.64;70.09
24013;BME280;12220;50.194;18.948;2023-12-29T00:42:52;101792.96;;;8.66;70.05
24013;BME280;12220;50.194;18.948;2023-12-29T00:44:54;101808.41;;;8.67;69.98
24013;BME280;12220;50.194;18.948;2023-12-29T00:46:55;101814.70;;;8.69;69.95
24013;BME280;12220;50.194;18.948;2023-12-29T00:48:56;101818.23;;;8.71;69.92
24013;BME280;12220;50.194;18.948;2023-12-29T00:51:07;101817.29;;;8.72;69.90
24013;BME280;12220;50.194;18.948;2023-12-29T00:53:09;101818.16;;;8.73;69.90
24013;BME280;12220;50.194;18.948;2023-12-29T00:55:10;101810.84;;;8.73;69.80
24013;BME280;12220;50.194;18.948;2023-12-29T00:57:11;101798.97;;;8.75;69.79
24013;BME280;12220;50.194;18.948;2023-12-29T00:59:25;101804.44;;;8.75;69.80
24013;BME280;12220;50.194;18.948;2023-12-29T01:01:26;101808.19;;;8.72;69.87
24013;BME280;12220;50.194;18.948;2023-12-29T01:03:27;101798.31;;;8.69;70.01
24013;BME280;12220;50.194;18.948;2023-12-29T01:05:29;101809.16;;;8.71;69.90
24013;BME280;12220;50.194;18.948;2023-12-29T01:07:37;101797.41;;;8.69;70.02
24013;BME280;12220;50.194;18.948;2023-12-29T01:09:39;101799.34;;;8.67;69.99
24013;BME280;12220;50.194;18.948;2023-12-29T01:11:43;101803.85;;;8.68;69.95
24013;BME280;12220;50.194;18.948;2023-12-29T01:13:45;101799.20;;;8.70;69.97
24013;BME280;12220;50.194;18.948;2023-12-29T01:15:52;101798.39;;;8.68;70.16
24013;BME280;12220;50.194;18.948;2023-12-29T01:17:54;101799.26;;;8.68;70.10
24013;BME280;12220;50.194;18.948;2023-12-29T01:19:55;101781.23;;;8.64;70.28
24013;BME280;12220;50.194;18.948;2023-12-29T01:21:57;101784.92;;;8.63;70.34
24013;BME280;12220;50.194;18.948;2023-12-29T01:24:07;101777.77;;;8.61;70.54
24013;BME280;12220;50.194;18.948;2023-12-29T01:26:09;101784.32;;;8.57;70.62
24013;BME280;12220;50.194;18.948;2023-12-29T01:28:11;101792.66;;;8.53;70.75
24013;BME280;12220;50.194;18.948;2023-12-29T01:30:12;101785.48;;;8.51;70.78
24013;BME280;12220;50.194;18.948;2023-12-29T01:32:23;101781.19;;;8.45;71.06
24013;BME280;12220;50.194;18.948;2023-12-29T01:34:25;101791.27;;;8.43;71.20
24013;BME280;12220;50.194;18.948;2023-12-29T01:36:34;101784.16;;;8.39;71.38
24013;BME280;12220;50.194;18.948;2023-12-29T01:38:35;101769.60;;;8.38;71.29
24013;BME280;12220;50.194;18.948;2023-12-29T01:40:45;101625.23;;;7.52;71.17
24013;BME280;12220;50.194;18.948;2023-12-29T01:42:46;101766.13;;;8.35;71.36
24013;BME280;12220;50.194;18.948;2023-12-29T01:44:48;101759.18;;;8.28;71.43
24013;BME280;12220;50.194;18.948;2023-12-29T01:46:58;101754.59;;;8.28;71.26
24013;BME280;12220;50.194;18.948;2023-12-29T01:49:01;101751.00;;;8.28;71.12
24013;BME280;12220;50.194;18.948;2023-12-29T01:51:03;101761.03;;;8.27;71.03
24013;BME280;12220;50.194;18.948;2023-12-29T01:53:05;101757.25;;;8.30;70.92
24013;BME280;12220;50.194;18.948;2023-12-29T01:55:09;101757.19;;;8.31;70.79
24013;BME280;12220;50.194;18.948;2023-12-29T01:57:15;101754.45;;;8.31;70.64
24013;BME280;12220;50.194;18.948;2023-12-29T01:59:17;101745.39;;;8.31;70.53
24013;BME280;12220;50.194;18.948;2023-12-29T02:01:18;101745.39;;;8.31;70.34
24013;BME280;12220;50.194;18.948;2023-12-29T02:03:21;101739.06;;;8.30;70.21
24013;BME280;12220;50.194;18.948;2023-12-29T02:05:24;101738.22;;;8.28;69.98
24013;BME280;12220;50.194;18.948;2023-12-29T02:07:28;101744.52;;;8.30;69.94
24013;BME280;12220;50.194;18.948;2023-12-29T02:09:33;101741.86;;;8.29;69.75
24013;BME280;12220;50.194;18.948;2023-12-29T02:11:35;101732.70;;;8.30;69.71
24013;BME280;12220;50.194;18.948;2023-12-29T02:13:39;101737.34;;;8.28;69.51
24013;BME280;12220;50.194;18.948;2023-12-29T02:15:41;101740.89;;;8.30;69.44
24013;BME280;12220;50.194;18.948;2023-12-29T02:19:59;101737.34;;;8.28;68.99
24013;BME280;12220;50.194;18.948;2023-12-29T02:22:18;101737.41;;;8.26;68.55
24013;BME280;12220;50.194;18.948;2023-12-29T02:24:19;101742.59;;;8.32;68.54
24013;BME280;12220;50.194;18.948;2023-12-29T02:26:23;101738.91;;;8.33;68.50
24013;BME280;12220;50.194;18.948;2023-12-29T02:28:26;101743.36;;;8.36;68.28
24013;BME280;12220;50.194;18.948;2023-12-29T02:30:37;101739.66;;;8.37;68.24
24013;BME280;12220;50.194;18.948;2023-12-29T02:32:44;101732.38;;;8.37;68.16
24013;BME280;12220;50.194;18.948;2023-12-29T02:34:52;101740.56;;;8.37;68.07
24013;BME280;12220;50.194;18.948;2023-12-29T02:36:54;101729.65;;;8.37;68.03
24013;BME280;12220;50.194;18.948;2023-12-29T02:38:59;101725.13;;;8.36;68.04
24013;BME280;12220;50.194;18.948;2023-12-29T02:41:00;101729.71;;;8.36;67.98
24013;BME280;12220;50.194;18.948;2023-12-29T02:43:08;101727.24;;;8.30;67.64
24013;BME280;12220;50.194;18.948;2023-12-29T02:45:10;101714.43;;;8.32;67.59
24013;BME280;12220;50.194;18.948;2023-12-29T02:47:12;101706.23;;;8.32;67.54
24013;BME280;12220;50.194;18.948;2023-12-29T02:49:13;101703.51;;;8.32;67.42
24013;BME280;12220;50.194;18.948;2023-12-29T02:51:14;101710.73;;;8.33;67.38
24013;BME280;12220;50.194;18.948;2023-12-29T02:53:16;101706.18;;;8.33;67.35
24013;BME280;12220;50.194;18.948;2023-12-29T02:55:17;101702.53;;;8.33;67.23
24013;BME280;12220;50.194;18.948;2023-12-29T02:57:20;101709.84;;;8.32;67.11
24013;BME280;12220;50.194;18.948;2023-12-29T02:59:21;101708.13;;;8.30;66.83
24013;BME280;12220;50.194;18.948;2023-12-29T03:01:23;101694.56;;;8.28;66.82
24013;BME280;12220;50.194;18.948;2023-12-29T03:03:24;101698.20;;;8.29;66.70
24013;BME280;12220;50.194;18.948;2023-12-29T03:05:36;101683.72;;;8.27;66.67
24013;BME280;12220;50.194;18.948;2023-12-29T03:07:40;100809.29;;;2.36;66.11
24013;BME280;12220;50.194;18.948;2023-12-29T03:09:42;101692.81;;;8.27;66.51
24013;BME280;12220;50.194;18.948;2023-12-29T03:11:43;101689.24;;;8.25;66.47
24013;BME280;12220;50.194;18.948;2023-12-29T03:13:50;101683.79;;;8.25;66.36
24013;BME280;12220;50.194;18.948;2023-12-29T03:15:51;101696.63;;;8.23;66.27
24013;BME280;12220;50.194;18.948;2023-12-29T03:17:56;101689.39;;;8.22;66.15
24013;BME280;12220;50.194;18.948;2023-12-29T03:19:58;101690.33;;;8.21;66.02
24013;BME280;12220;50.194;18.948;2023-12-29T03:22:10;101688.44;;;8.23;66.08
24013;BME280;12220;50.194;18.948;2023-12-29T03:24:11;101688.44;;;8.23;66.03
24013;BME280;12220;50.194;18.948;2023-12-29T03:26:15;101682.43;;;8.15;65.30
24013;BME280;12220;50.194;18.948;2023-12-29T03:28:16;101696.77;;;8.20;65.56
24013;BME280;12220;50.194;18.948;2023-12-29T03:30:24;101138.94;;;4.97;65.15
24013;BME280;12220;50.194;18.948;2023-12-29T03:32:26;101688.59;;;8.20;65.13
24013;BME280;12220;50.194;18.948;2023-12-29T03:34:30;101679.42;;;8.21;65.05
24013;BME280;12220;50.194;18.948;2023-12-29T03:36:31;101691.24;;;8.22;64.96
24013;BME280;12220;50.194;18.948;2023-12-29T03:38:40;101679.42;;;8.21;64.91
24013;BME280;12220;50.194;18.948;2023-12-29T03:40:45;101685.85;;;8.20;64.98
24013;BME280;12220;50.194;18.948;2023-12-29T03:42:46;101687.09;;;8.13;64.47
24013;BME280;12220;50.194;18.948;2023-12-29T03:44:48;101676.03;;;8.16;64.66
24013;BME280;12220;50.194;18.948;2023-12-29T03:46:55;101682.43;;;8.15;64.45
24013;BME280;12220;50.194;18.948;2023-12-29T03:48:56;101683.38;;;8.14;64.43
24013;BME280;12220;50.194;18.948;2023-12-29T03:50:58;101677.85;;;8.15;64.57
24013;BME280;12220;50.194;18.948;2023-12-29T03:52:59;101680.65;;;8.14;64.51
24013;BME280;12220;50.194;18.948;2023-12-29T03:55:10;101674.25;;;8.15;64.63
24013;BME280;12220;50.194;18.948;2023-12-29T03:57:12;101672.40;;;8.15;64.66
24013;BME280;12220;50.194;18.948;2023-12-29T03:59:13;101667.01;;;8.14;64.73
24013;BME280;12220;50.194;18.948;2023-12-29T04:01:16;101663.48;;;8.12;64.75
24013;BME280;12220;50.194;18.948;2023-12-29T04:03:25;101669.95;;;8.09;64.83
24013;BME280;12220;50.194;18.948;2023-12-29T04:05:26;101667.45;;;8.05;64.78
24013;BME280;12220;50.194;18.948;2023-12-29T04:07:28;101661.17;;;8.02;64.83
24013;BME280;12220;50.194;18.948;2023-12-29T04:09:30;101664.71;;;8.05;64.88
24013;BME280;12220;50.194;18.948;2023-12-29T04:11:40;101663.91;;;8.02;64.87
24013;BME280;12220;50.194;18.948;2023-12-29T04:13:44;101668.45;;;8.02;64.83
24013;BME280;12220;50.194;18.948;2023-12-29T04:15:45;101658.44;;;8.02;64.93
24013;BME280;12220;50.194;18.948;2023-12-29T04:17:47;101666.63;;;8.02;64.94
24013;BME280;12220;50.194;18.948;2023-12-29T04:19:55;101669.28;;;8.04;65.00
24013;BME280;12220;50.194;18.948;2023-12-29T04:21:57;101671.11;;;8.03;65.01
24013;BME280;12220;50.194;18.948;2023-12-29T04:23:59;101669.22;;;8.06;65.02
24013;BME280;12220;50.194;18.948;2023-12-29T04:26:01;101672.75;;;8.08;65.05
24013;BME280;12220;50.194;18.948;2023-12-29T04:28:10;101676.30;;;8.10;64.84
24013;BME280;12220;50.194;18.948;2023-12-29T04:30:11;101669.88;;;8.11;64.77
24013;BME280;12220;50.194;18.948;2023-12-29T04:32:13;101679.64;;;8.16;64.77
24013;BME280;12220;50.194;18.948;2023-12-29T04:34:14;101667.56;;;8.22;64.60
24013;BME280;12220;50.194;18.948;2023-12-29T04:36:28;101667.27;;;8.28;64.45
24013;BME280;12220;50.194;18.948;2023-12-29T04:38:29;101665.38;;;8.30;64.41
24013;BME280;12220;50.194;18.948;2023-12-29T04:40:30;101659.70;;;8.35;64.45
24013;BME280;12220;50.194;18.948;2023-12-29T04:42:35;101665.02;;;8.38;64.34
24013;BME280;12220;50.194;18.948;2023-12-29T04:44:40;101660.43;;;8.38;64.17
24013;BME280;12220;50.194;18.948;2023-12-29T04:46:41;101662.15;;;8.41;64.18
24013;BME280;12220;50.194;18.948;2023-12-29T04:48:43;101658.46;;;8.42;64.00
24013;BME280;12220;50.194;18.948;2023-12-29T04:50:44;101665.66;;;8.45;64.06
24013;BME280;12220;50.194;18.948;2023-12-29T04:52:55;101666.58;;;8.44;64.03
24013;BME280;12220;50.194;18.948;2023-12-29T04:54:56;101675.68;;;8.44;64.09
24013;BME280;12220;50.194;18.948;2023-12-29T04:56:57;101659.98;;;8.49;64.14
24013;BME280;12220;50.194;18.948;2023-12-29T04:58:59;101652.66;;;8.50;64.13
24013;BME280;12220;50.194;18.948;2023-12-29T05:01:10;101650.85;;;8.50;64.25
24013;BME280;12220;50.194;18.948;2023-12-29T05:03:11;101651.58;;;8.54;64.37
24013;BME280;12220;50.194;18.948;2023-12-29T05:05:13;101651.43;;;8.57;64.45
24013;BME280;12220;50.194;18.948;2023-12-29T05:07:14;101654.16;;;8.57;64.62
24013;BME280;12220;50.194;18.948;2023-12-29T05:09:25;101636.75;;;8.60;64.77
24013;BME280;12220;50.194;18.948;2023-12-29T05:11:26;101636.67;;;8.61;64.88
24013;BME280;12220;50.194;18.948;2023-12-29T05:13:28;101643.01;;;8.62;64.95
24013;BME280;12220;50.194;18.948;2023-12-29T05:15:30;101641.11;;;8.64;65.13
24013;BME280;12220;50.194;18.948;2023-12-29T05:17:40;101642.21;;;8.60;65.87
24013;BME280;12220;50.194;18.948;2023-12-29T05:19:41;101638.64;;;8.58;66.07
24013;BME280;12220;50.194;18.948;2023-12-29T05:21:43;101635.80;;;8.61;66.13
24013;BME280;12220;50.194;18.948;2023-12-29T05:23:45;101641.11;;;8.64;66.14
24013;BME280;12220;50.194;18.948;2023-12-29T05:25:55;101626.63;;;8.62;66.54
24013;BME280;12220;50.194;18.948;2023-12-29T05:27:56;101400.96;;;7.29;66.47
24013;BME280;12220;50.194;18.948;2023-12-29T05:29:58;101642.86;;;8.65;66.65
24013;BME280;12220;50.194;18.948;2023-12-29T05:31:59;101633.88;;;8.63;66.93
24013;BME280;12220;50.194;18.948;2023-12-29T05:34:11;101437.18;;;7.31;66.75
24013;BME280;12220;50.194;18.948;2023-12-29T05:36:12;101652.98;;;8.63;67.23
24013;BME280;12220;50.194;18.948;2023-12-29T05:38:13;101643.84;;;8.64;67.33
24013;BME280;12220;50.194;18.948;2023-12-29T05:40:15;101642.06;;;8.63;67.53
24013;BME280;12220;50.194;18.948;2023-12-29T05:42:25;101647.59;;;8.61;67.67
24013;BME280;12220;50.194;18.948;2023-12-29T05:44:26;101641.03;;;8.65;67.65
24013;BME280;12220;50.194;18.948;2023-12-29T05:46:28;101641.91;;;8.66;67.95
24013;BME280;12220;50.194;18.948;2023-12-29T05:48:29;101638.07;;;8.70;67.99
24013;BME280;12220;50.194;18.948;2023-12-29T05:50:40;101641.69;;;8.70;68.28
24013;BME280;12220;50.194;18.948;2023-12-29T05:52:41;101641.69;;;8.70;68.48
24013;BME280;12220;50.194;18.948;2023-12-29T05:54:43;101637.06;;;8.72;68.47
24013;BME280;12220;50.194;18.948;2023-12-29T05:56:47;101646.99;;;8.73;68.57
24013;BME280;12220;50.194;18.948;2023-12-29T05:58:55;101651.51;;;8.75;68.68
24013;BME280;12220;50.194;18.948;2023-12-29T06:00:56;101646.88;;;8.77;68.59
24013;BME280;12220;50.194;18.948;2023-12-29T06:03:01;101651.21;;;8.81;68.40
24013;BME280;12220;50.194;18.948;2023-12-29T06:05:05;101643.98;;;8.80;68.62
24013;BME280;12220;50.194;18.948;2023-12-29T06:07:10;101624.72;;;8.83;68.49
24013;BME280;12220;50.194;18.948;2023-12-29T06:09:11;101627.45;;;8.83;68.45
24013;BME280;12220;50.194;18.948;2023-12-29T06:11:16;101625.67;;;8.82;68.33
24013;BME280;12220;50.194;18.948;2023-12-29T06:13:17;101624.57;;;8.86;68.18
24013;BME280;12220;50.194;18.948;2023-12-29T06:15:25;101634.62;;;8.85;68.12
24013;BME280;12220;50.194;18.948;2023-12-29T06:17:26;101631.14;;;8.82;68.12
24013;BME280;12220;50.194;18.948;2023-12-29T06:19:27;101625.67;;;8.82;68.20
24013;BME280;12220;50.194;18.948;2023-12-29T06:21:29;101626.55;;;8.82;68.09
24013;BME280;12220;50.194;18.948;2023-12-29T06:23:40;101623.90;;;8.81;68.14
24013;BME280;12220;50.194;18.948;2023-12-29T06:25:41;101642.21;;;8.79;68.31
24013;BME280;12220;50.194;18.948;2023-12-29T06:27:43;101641.26;;;8.80;68.28
24013;BME280;12220;50.194;18.948;2023-12-29T06:29:44;101636.90;;;8.76;68.37
24013;BME280;12220;50.194;18.948;2023-12-29T06:31:55;101644.15;;;8.77;68.32
24013;BME280;12220;50.194;18.948;2023-12-29T06:33:56;101646.91;;;8.75;68.31
24013;BME280;12220;50.194;18.948;2023-12-29T06:36:01;101645.09;;;8.76;68.24
24013;BME280;12220;50.194;18.948;2023-12-29T06:38:02;101635.34;;;8.70;68.33
24013;BME280;12220;50.194;18.948;2023-12-29T06:40:10;101628.11;;;8.69;68.30
24013;BME280;12220;50.194;18.948;2023-12-29T06:42:12;101430.45;;;7.40;68.15
24013;BME280;12220;50.194;18.948;2023-12-29T06:44:13;101630.27;;;8.62;68.34
24013;BME280;12220;50.194;18.948;2023-12-29T06:46:15;101625.91;;;8.58;68.38
24013;BME280;12220;50.194;18.948;2023-12-29T06:48:25;101614.04;;;8.59;68.35
24013;BME280;12220;50.194;18.948;2023-12-29T06:50:26;101614.08;;;8.58;68.35
24013;BME280;12220;50.194;18.948;2023-12-29T06:52:28;101618.59;;;8.59;68.34
24013;BME280;12220;50.194;18.948;2023-12-29T06:54:37;101625.91;;;8.58;68.33
24013;BME280;12220;50.194;18.948;2023-12-29T06:56:40;101625.07;;;8.56;68.38
24013;BME280;12220;50.194;18.948;2023-12-29T06:58:41;101628.79;;;8.55;68.40
24013;BME280;12220;50.194;18.948;2023-12-29T07:00:43;101638.07;;;8.51;68.60
24013;BME280;12220;50.194;18.948;2023-12-29T07:02:44;101634.47;;;8.50;68.57
24013;BME280;12220;50.194;18.948;2023-12-29T07:04:55;101631.85;;;8.47;68.62
24013;BME280;12220;50.194;18.948;2023-12-29T07:06:56;101631.74;;;8.50;68.54
24013;BME280;12220;50.194;18.948;2023-12-29T07:08:59;101631.93;;;8.46;68.57
24013;BME280;12220;50.194;18.948;2023-12-29T07:11:02;101638.22;;;8.48;68.51
24013;BME280;12220;50.194;18.948;2023-12-29T07:13:10;101638.95;;;8.51;68.46
24013;BME280;12220;50.194;18.948;2023-12-29T07:15:13;101643.68;;;8.48;68.48
24013;BME280;12220;50.194;18.948;2023-12-29T07:17:15;101654.45;;;8.51;68.41
24013;BME280;12220;50.194;18.948;2023-12-29T07:19:16;101641.75;;;8.50;68.34
24013;BME280;12220;50.194;18.948;2023-12-29T07:21:25;101642.59;;;8.52;68.32
24013;BME280;12220;50.194;18.948;2023-12-29T07:23:26;101651.64;;;8.52;68.31
24013;BME280;12220;50.194;18.948;2023-12-29T07:25:30;101647.05;;;8.53;68.30
24013;BME280;12220;50.194;18.948;2023-12-29T07:27:31;101646.99;;;8.54;68.25
24013;BME280;12220;50.194;18.948;2023-12-29T07:29:40;101685.97;;;8.58;68.18
24013;BME280;12220;50.194;18.948;2023-12-29T07:31:41;101646.84;;;8.58;68.13
24013;BME280;12220;50.194;18.948;2023-12-29T07:33:42;101668.49;;;8.62;68.14
24013;BME280;12220;50.194;18.948;2023-12-29T07:35:44;101668.34;;;8.65;68.07
24013;BME280;12220;50.194;18.948;2023-12-29T07:37:55;101661.90;;;8.66;67.87
24013;BME280;12220;50.194;18.948;2023-12-29T07:39:56;101654.53;;;8.68;67.85
24013;BME280;12220;50.194;18.948;2023-12-29T07:41:58;101658.90;;;8.72;67.77
24013;BME280;12220;50.194;18.948;2023-12-29T07:43:59;101655.94;;;8.77;67.74
24013;BME280;12220;50.194;18.948;2023-12-29T07:46:10;101653.74;;;8.85;67.66
24013;BME280;12220;50.194;18.948;2023-12-29T07:48:11;101650.78;;;8.90;67.56
24013;BME280;12220;50.194;18.948;2023-12-29T07:50:13;101662.50;;;8.92;67.43
24013;BME280;12220;50.194;18.948;2023-12-29T07:52:14;101663.18;;;8.97;67.42
24013;BME280;12220;50.194;18.948;2023-12-29T07:54:25;101651.07;;;9.03;67.33
24013;BME280;12220;50.194;18.948;2023-12-29T07:56:26;101639.08;;;9.05;67.29
24013;BME280;12220;50.194;18.948;2023-12-29T07:58:27;101648.90;;;9.10;67.21
24013;BME280;12220;50.194;18.948;2023-12-29T08:00:29;101656.16;;;9.11;67.18
24013;BME280;12220;50.194;18.948;2023-12-29T08:02:40;101659.52;;;9.16;67.09
24013;BME280;12220;50.194;18.948;2023-12-29T08:04:41;101650.13;;;9.21;67.11
24013;BME280;12220;50.194;18.948;2023-12-29T08:06:42;101661.98;;;9.22;66.98
24013;BME280;12220;50.194;18.948;2023-12-29T08:08:46;101651.84;;;9.24;66.79
24013;BME280;12220;50.194;18.948;2023-12-29T08:10:55;101653.45;;;9.28;66.66
24013;BME280;12220;50.194;18.948;2023-12-29T08:12:56;101656.83;;;9.33;66.65
24013;BME280;12220;50.194;18.948;2023-12-29T08:14:57;101653.97;;;9.36;66.58
24013;BME280;12220;50.194;18.948;2023-12-29T08:16:58;101653.89;;;9.38;66.48
24013;BME280;12220;50.194;18.948;2023-12-29T08:19:10;101656.46;;;9.41;66.39
24013;BME280;12220;50.194;18.948;2023-12-29T08:21:20;101641.97;;;9.39;66.03
24013;BME280;12220;50.194;18.948;2023-12-29T08:23:21;101658.09;;;9.45;65.88
24013;BME280;12220;50.194;18.948;2023-12-29T08:25:23;101655.20;;;9.48;65.85
24013;BME280;12220;50.194;18.948;2023-12-29T08:27:26;101658.55;;;9.53;65.86
24013;BME280;12220;50.194;18.948;2023-12-29T08:29:27;101662.91;;;9.57;65.86
24013;BME280;12220;50.194;18.948;2023-12-29T08:31:29;101663.50;;;9.64;65.75
24013;BME280;12220;50.194;18.948;2023-12-29T08:33:30;101666.23;;;9.64;65.54
24013;BME280;12220;50.194;18.948;2023-12-29T08:35:42;101661.38;;;9.69;65.38
24013;BME280;12220;50.194;18.948;2023-12-29T08:37:43;101681.49;;;9.68;65.28
24013;BME280;12220;50.194;18.948;2023-12-29T08:39:54;101687.54;;;9.75;65.29
24013;BME280;12220;50.194;18.948;2023-12-29T08:41:54;101670.17;;;9.76;65.18
24013;BME280;12220;50.194;18.948;2023-12-29T08:43:56;101664.55;;;9.79;65.13
24013;BME280;12220;50.194;18.948;2023-12-29T08:45:57;101491.23;;;8.58;64.92
24013;BME280;12220;50.194;18.948;2023-12-29T08:47:59;101659.70;;;9.84;64.93
24013;BME280;12220;50.194;18.948;2023-12-29T08:50:00;101663.88;;;9.91;65.07
24013;BME280;12220;50.194;18.948;2023-12-29T08:52:11;101666.45;;;9.94;64.99
24013;BME280;12220;50.194;18.948;2023-12-29T08:54:12;101669.27;;;9.93;65.00
24013;BME280;12220;50.194;18.948;2023-12-29T08:56:14;101662.13;;;9.90;64.82
24013;BME280;12220;50.194;18.948;2023-12-29T08:58:15;101655.51;;;9.94;64.83
24013;BME280;12220;50.194;18.948;2023-12-29T09:00:26;101664.38;;;10.00;64.98
24013;BME280;12220;50.194;18.948;2023-12-29T09:04:35;101656.82;;;10.05;64.92
24013;BME280;12220;50.194;18.948;2023-12-29T09:06:36;101652.38;;;10.02;64.65
24013;BME280;12220;50.194;18.948;2023-12-29T09:08:41;101663.16;;;10.05;64.60
24013;BME280;12220;50.194;18.948;2023-12-29T09:10:42;101660.35;;;10.07;64.60
24013;BME280;12220;50.194;18.948;2023-12-29T09:12:44;101663.00;;;10.08;64.49
24013;BME280;12220;50.194;18.948;2023-12-29T09:14:46;101651.97;;;10.10;64.35
24013;BME280;12220;50.194;18.948;2023-12-29T09:16:56;101649.06;;;10.13;64.47
24013;BME280;12220;50.194;18.948;2023-12-29T09:18:57;101651.47;;;10.19;64.50
24013;BME280;12220;50.194;18.948;2023-12-29T09:20:59;101431.94;;;8.96;64.48
24013;BME280;12220;50.194;18.948;2023-12-29T09:23:01;101650.08;;;10.28;64.34
24013;BME280;12220;50.194;18.948;2023-12-29T09:25:11;101654.51;;;10.30;64.43
24013;BME280;12220;50.194;18.948;2023-12-29T09:27:13;101642.68;;;10.30;64.10
24013;BME280;12220;50.194;18.948;2023-12-29T09:29:15;101640.45;;;10.38;64.16
24013;BME280;12220;50.194;18.948;2023-12-29T09:31:16;101641.81;;;10.47;64.08
24013;BME280;12220;50.194;18.948;2023-12-29T09:33:26;101636.23;;;10.49;63.71
24013;BME280;12220;50.194;18.948;2023-12-29T09:35:27;101636.06;;;10.52;63.61
24013;BME280;12220;50.194;18.948;2023-12-29T09:37:29;101621.55;;;10.50;63.38
24013;BME280;12220;50.194;18.948;2023-12-29T09:39:30;101619.27;;;10.58;63.45
24013;BME280;12220;50.194;18.948;2023-12-29T09:41:45;101610.89;;;10.61;63.53
24013;BME280;12220;50.194;18.948;2023-12-29T09:43:51;101613.71;;;10.59;63.45
24013;BME280;12220;50.194;18.948;2023-12-29T09:45:53;101609.74;;;10.65;63.61
24013;BME280;12220;50.194;18.948;2023-12-29T09:48:05;101607.02;;;10.65;63.44
24013;BME280;12220;50.194;18.948;2023-12-29T09:50:15;101610.80;;;10.62;63.28
24013;BME280;12220;50.194;18.948;2023-12-29T09:52:20;101617.97;;;10.65;63.37
24013;BME280;12220;50.194;18.948;2023-12-29T09:54:23;101615.40;;;10.62;63.31
24013;BME280;12220;50.194;18.948;2023-12-29T09:56:25;101613.45;;;10.64;63.37
24013;BME280;12220;50.194;18.948;2023-12-29T09:58:26;101609.02;;;10.61;63.21
24013;BME280;12220;50.194;18.948;2023-12-29T10:00:34;101606.91;;;10.67;63.30
24013;BME280;12220;50.194;18.948;2023-12-29T10:02:36;101607.88;;;10.66;63.32
24013;BME280;12220;50.194;18.948;2023-12-29T10:04:37;101604.87;;;10.70;63.31
24013;BME280;12220;50.194;18.948;2023-12-29T10:06:41;101597.39;;;10.74;63.22
24013;BME280;12220;50.194;18.948;2023-12-29T10:08:50;101617.43;;;10.74;63.12
24013;BME280;12220;50.194;18.948;2023-12-29T10:10:53;101618.16;;;10.78;63.18
24013;BME280;12220;50.194;18.948;2023-12-29T10:12:54;101619.76;;;10.82;63.52
24013;BME280;12220;50.194;18.948;2023-12-29T10:21:55;101604.10;;;10.84;62.77
24013;BME280;12220;50.194;18.948;2023-12-29T10:24:17;101602.05;;;10.88;62.81
24013;BME280;12220;50.194;18.948;2023-12-29T10:26:29;101591.72;;;10.93;62.92
24013;BME280;12220;50.194;18.948;2023-12-29T10:28:32;101591.54;;;10.96;62.96
24013;BME280;12220;50.194;18.948;2023-12-29T10:30:34;101594.10;;;10.99;62.80
24013;BME280;12220;50.194;18.948;2023-12-29T10:32:36;101593.22;;;10.98;62.65
24013;BME280;12220;50.194;18.948;2023-12-29T10:34:44;101596.93;;;10.97;62.56
24013;BME280;12220;50.194;18.948;2023-12-29T10:36:49;101600.39;;;11.01;62.75
24013;BME280;12220;50.194;18.948;2023-12-29T10:39:13;101583.85;;;11.03;62.84
24013;BME280;12220;50.194;18.948;2023-12-29T10:41:15;101603.91;;;11.03;62.84
24013;BME280;12220;50.194;18.948;2023-12-29T10:43:23;101602.04;;;11.04;62.66
24013;BME280;12220;50.194;18.948;2023-12-29T10:45:24;101582.27;;;10.98;62.46
24013;BME280;12220;50.194;18.948;2023-12-29T10:47:25;101592.26;;;10.99;62.55
24013;BME280;12220;50.194;18.948;2023-12-29T10:49:27;101586.70;;;11.01;62.69
24013;BME280;12220;50.194;18.948;2023-12-29T10:51:29;101528.72;;;10.61;62.61
24013;BME280;12220;50.194;18.948;2023-12-29T10:53:36;101585.79;;;11.01;62.75
24013;BME280;12220;50.194;18.948;2023-12-29T10:55:38;101569.52;;;10.97;62.76
24013;BME280;12220;50.194;18.948;2023-12-29T10:57:40;101565.10;;;10.95;62.63